createdAt,value
2022-12-16T00:01:27.882Z,4.26
2022-12-16T00:03:55.671Z,4.12
2022-12-16T00:06:24.508Z,4.33
2022-12-16T00:08:51.975Z,4.70
2022-12-16T00:11:20.148Z,4.12
2022-12-16T00:13:47.407Z,4.05
2022-12-16T00:16:15.527Z,4.05
2022-12-16T00:18:42.738Z,3.98
2022-12-16T00:21:09.528Z,4.25
2022-12-16T00:23:36.705Z,4.63
2022-12-16T00:26:03.660Z,4.71
2022-12-16T00:28:30.437Z,4.53
2022-12-16T00:30:57.612Z,4.35
2022-12-16T00:33:28.214Z,3.88
2022-12-16T00:35:55.333Z,4.39
2022-12-16T00:38:23.287Z,4.66
2022-12-16T00:40:50.085Z,4.17
2022-12-16T00:43:19.901Z,4.46
2022-12-16T00:45:46.899Z,4.41
2022-12-16T00:48:14.663Z,4.41
2022-12-16T00:50:41.407Z,4.17
2022-12-16T00:53:08.348Z,4.87
2022-12-16T00:55:35.486Z,4.73
2022-12-16T00:58:02.180Z,5.02
2022-12-16T01:00:28.950Z,4.82
2022-12-16T01:02:55.827Z,5.06
2022-12-16T01:05:26.956Z,5.26
2022-12-16T01:07:54.751Z,4.77
2022-12-16T01:10:22.129Z,4.85
2022-12-16T01:12:48.832Z,4.58
2022-12-16T01:15:15.762Z,4.32
2022-12-16T01:17:42.595Z,4.68
2022-12-16T01:20:09.616Z,4.85
2022-12-16T01:22:36.278Z,4.55
2022-12-16T01:25:03.753Z,4.57
2022-12-16T01:27:30.612Z,4.24
2022-12-16T01:29:57.382Z,4.21
2022-12-16T01:32:24.096Z,4.79
2022-12-16T01:34:55.349Z,4.46
2022-12-16T01:37:23.045Z,3.98
2022-12-16T01:39:49.917Z,4.07
2022-12-16T01:42:19.392Z,3.69
2022-12-16T01:44:47.114Z,3.97
2022-12-16T01:47:15.928Z,3.63
2022-12-16T01:50:06.330Z,3.76
2022-12-16T01:52:40.390Z,3.95
2022-12-16T01:55:09.699Z,3.98
2022-12-16T01:57:48.592Z,4.15
2022-12-16T02:00:15.444Z,4.11
2022-12-16T02:02:46.561Z,4.08
2022-12-16T02:05:22.824Z,4.28
2022-12-16T02:08:03.171Z,4.14
2022-12-16T02:10:45.062Z,4.62
2022-12-16T02:13:30.396Z,4.29
2022-12-16T02:15:57.324Z,4.39
2022-12-16T02:18:45.498Z,4.30
2022-12-16T02:21:18.049Z,4.10
2022-12-16T02:24:03.945Z,4.36
2022-12-16T02:26:49.201Z,4.21
2022-12-16T02:29:30.229Z,4.19
2022-12-16T02:31:56.879Z,4.23
2022-12-16T02:34:29.867Z,4.41
2022-12-16T02:37:05.974Z,4.30
2022-12-16T02:39:38.148Z,4.16
2022-12-16T02:42:13.670Z,4.92
2022-12-16T02:44:44.082Z,4.27
2022-12-16T02:47:10.828Z,4.63
2022-12-16T02:49:48.587Z,4.82
2022-12-16T02:52:16.159Z,4.70
2022-12-16T02:54:43.390Z,4.56
2022-12-16T02:57:13.786Z,5.04
2022-12-16T02:59:59.443Z,5.04
2022-12-16T03:02:31.056Z,4.94
2022-12-16T03:05:10.198Z,5.14
2022-12-16T03:07:40.096Z,5.49
2022-12-16T03:10:07.984Z,5.50
2022-12-16T03:12:35.772Z,5.81
2022-12-16T03:15:02.902Z,5.69
2022-12-16T03:17:29.679Z,5.52
2022-12-16T03:20:08.921Z,5.81
2022-12-16T03:22:36.835Z,6.00
2022-12-16T03:25:04.115Z,5.73
2022-12-16T03:27:43.924Z,5.76
2022-12-16T03:30:14.169Z,5.70
2022-12-16T03:32:49.084Z,5.18
2022-12-16T03:35:44.971Z,5.76
2022-12-16T03:38:13.033Z,5.19
2022-12-16T03:40:41.620Z,4.77
2022-12-16T03:43:09.152Z,5.50
2022-12-16T03:45:40.228Z,5.88
2022-12-16T03:48:08.547Z,6.17
2022-12-16T03:50:35.906Z,6.49
2022-12-16T03:53:03.069Z,6.62
2022-12-16T03:55:29.805Z,6.75
2022-12-16T03:57:57.431Z,7.01
2022-12-16T04:00:24.755Z,6.40
2022-12-16T04:02:51.736Z,6.68
2022-12-16T04:05:20.538Z,5.40
2022-12-16T04:07:47.285Z,5.54
2022-12-16T04:10:13.984Z,5.41
2022-12-16T04:12:59.345Z,5.66
2022-12-16T04:15:44.624Z,5.54
2022-12-16T04:18:33.264Z,5.88
2022-12-16T04:21:18.865Z,5.94
2022-12-16T04:24:08.741Z,6.27
2022-12-16T04:26:55.446Z,6.20
2022-12-16T04:29:22.204Z,6.47
2022-12-16T04:31:49.264Z,6.69
2022-12-16T04:34:29.425Z,6.92
2022-12-16T04:37:23.430Z,6.91
2022-12-16T04:40:08.430Z,6.27
2022-12-16T04:42:53.549Z,6.22
2022-12-16T04:45:38.924Z,6.09
2022-12-16T04:48:24.383Z,6.28
2022-12-16T04:51:09.907Z,6.30
2022-12-16T04:53:54.891Z,6.10
2022-12-16T04:56:40.089Z,6.26
2022-12-16T04:59:25.105Z,6.80
2022-12-16T05:02:10.358Z,6.36
2022-12-16T05:04:55.505Z,6.16
2022-12-16T05:07:40.593Z,6.29
2022-12-16T05:10:26.305Z,6.40
2022-12-16T05:13:12.324Z,6.80
2022-12-16T05:15:58.482Z,6.59
2022-12-16T05:18:44.340Z,6.33
2022-12-16T05:21:29.389Z,6.27
2022-12-16T05:24:15.621Z,5.70
2022-12-16T05:27:00.922Z,5.55
2022-12-16T05:29:46.045Z,5.33
2022-12-16T05:32:30.995Z,5.68
2022-12-16T05:35:16.193Z,5.88
2022-12-16T05:38:18.088Z,6.48
2022-12-16T05:41:03.381Z,5.96
2022-12-16T05:43:48.497Z,6.12
2022-12-16T05:46:33.733Z,6.23
2022-12-16T05:49:18.919Z,6.05
2022-12-16T05:52:04.112Z,6.23
2022-12-16T05:54:49.249Z,6.42
2022-12-16T05:57:34.504Z,6.43
2022-12-16T06:00:19.543Z,6.47
2022-12-16T06:03:04.846Z,6.63
2022-12-16T06:05:49.965Z,6.24
2022-12-16T06:08:35.099Z,6.61
2022-12-16T06:11:20.304Z,6.70
2022-12-16T06:14:05.439Z,6.83
2022-12-16T06:16:50.386Z,6.77
2022-12-16T06:19:35.585Z,6.94
2022-12-16T06:22:20.740Z,6.99
2022-12-16T06:25:05.829Z,6.49
2022-12-16T06:27:50.920Z,6.72
2022-12-16T06:30:36.102Z,6.79
2022-12-16T06:33:21.184Z,5.56
2022-12-16T06:36:06.341Z,6.17
2022-12-16T06:38:51.514Z,6.25
2022-12-16T06:41:36.658Z,6.04
2022-12-16T06:44:22.196Z,6.28
2022-12-16T06:47:07.306Z,5.81
2022-12-16T06:49:52.525Z,5.45
2022-12-16T06:52:37.699Z,5.34
2022-12-16T06:55:23.401Z,5.60
2022-12-16T06:58:14.640Z,5.45
2022-12-16T07:00:59.830Z,5.78
2022-12-16T07:03:45.146Z,5.62
2022-12-16T07:06:30.341Z,5.97
2022-12-16T07:09:15.569Z,5.49
2022-12-16T07:12:00.573Z,5.26
2022-12-16T07:14:48.169Z,5.03
2022-12-16T07:17:33.706Z,5.29
2022-12-16T07:20:18.988Z,5.16
2022-12-16T07:23:12.099Z,4.41
2022-12-16T07:26:01.718Z,4.76
2022-12-16T07:28:48.423Z,5.23
2022-12-16T07:31:33.988Z,5.41
2022-12-16T07:34:19.582Z,5.30
2022-12-16T07:37:05.325Z,5.36
2022-12-16T07:39:54.878Z,5.67
2022-12-16T07:42:40.651Z,5.93
2022-12-16T07:45:26.210Z,5.99
2022-12-16T07:48:11.630Z,6.03
2022-12-16T07:50:56.742Z,5.47
2022-12-16T07:53:41.995Z,5.62
2022-12-16T07:56:28.272Z,6.09
2022-12-16T07:59:14.515Z,6.34
2022-12-16T08:02:04.312Z,6.44
2022-12-16T08:04:50.603Z,6.35
2022-12-16T08:07:36.636Z,6.85
2022-12-16T08:10:22.792Z,6.61
2022-12-16T08:13:08.294Z,6.46
2022-12-16T08:15:54.381Z,7.07
2022-12-16T08:18:39.506Z,7.28
2022-12-16T08:21:24.559Z,6.98
2022-12-16T08:24:10.197Z,6.89
2022-12-16T08:27:06.068Z,7.18
2022-12-16T08:29:54.414Z,7.02
2022-12-16T08:32:42.840Z,7.14
2022-12-16T08:35:28.462Z,7.54
2022-12-16T08:38:15.113Z,7.67
2022-12-16T08:41:03.261Z,7.74
2022-12-16T08:43:52.820Z,7.90
2022-12-16T08:46:38.612Z,7.99
2022-12-16T08:49:24.853Z,8.14
2022-12-16T08:52:10.409Z,8.27
2022-12-16T08:54:57.722Z,8.16
2022-12-16T08:57:42.909Z,8.19
2022-12-16T09:00:28.530Z,8.09
2022-12-16T09:03:14.920Z,8.32
2022-12-16T09:06:02.617Z,8.30
2022-12-16T09:08:48.322Z,8.46
2022-12-16T09:11:34.180Z,8.48
2022-12-16T09:14:20.357Z,8.39
2022-12-16T09:17:07.000Z,8.52
2022-12-16T09:20:09.170Z,8.55
2022-12-16T09:22:55.586Z,8.37
2022-12-16T09:25:41.024Z,8.63
2022-12-16T09:28:26.644Z,8.41
2022-12-16T09:31:11.934Z,8.19
2022-12-16T09:33:59.252Z,8.55
2022-12-16T09:36:46.540Z,8.74
2022-12-16T09:39:33.777Z,8.68
2022-12-16T09:42:38.767Z,8.70
2022-12-16T09:45:43.314Z,8.74
2022-12-16T09:48:42.076Z,8.39
2022-12-16T09:51:30.260Z,8.49
2022-12-16T09:54:16.494Z,8.47
2022-12-16T09:57:03.803Z,8.66
2022-12-16T10:00:01.105Z,8.83
2022-12-16T10:02:50.120Z,8.90
2022-12-16T10:05:39.545Z,8.56
2022-12-16T10:08:44.931Z,7.59
2022-12-16T10:11:36.698Z,7.67
2022-12-16T10:14:46.830Z,7.49
2022-12-16T10:17:36.390Z,6.85
2022-12-16T10:20:46.620Z,6.89
2022-12-16T10:23:32.323Z,7.12
2022-12-16T10:26:29.448Z,6.42
2022-12-16T10:29:23.189Z,6.35
2022-12-16T10:32:10.277Z,6.10
2022-12-16T10:34:56.454Z,6.30
2022-12-16T10:37:52.767Z,5.59
2022-12-16T10:40:40.488Z,5.61
2022-12-16T10:43:46.060Z,6.06
2022-12-16T10:46:37.237Z,6.10
2022-12-16T10:49:22.707Z,5.92
2022-12-16T10:52:09.233Z,6.17
2022-12-16T10:54:59.293Z,5.72
2022-12-16T10:58:01.719Z,5.90
2022-12-16T11:01:06.827Z,6.02
2022-12-16T11:03:54.467Z,6.50
2022-12-16T11:06:56.822Z,5.51
2022-12-16T11:09:46.144Z,4.75
2022-12-16T11:12:41.979Z,5.51
2022-12-16T11:15:49.464Z,5.94
2022-12-16T11:18:35.615Z,5.75
2022-12-16T11:21:31.421Z,6.05
2022-12-16T11:24:29.514Z,6.43
2022-12-16T11:27:16.295Z,6.39
2022-12-16T11:30:20.431Z,6.83
2022-12-16T11:33:07.616Z,6.72
2022-12-16T11:35:56.864Z,7.03
2022-12-16T11:38:47.156Z,7.35
2022-12-16T11:41:44.168Z,7.35
2022-12-16T11:44:34.927Z,7.39
2022-12-16T11:47:19.980Z,7.05
2022-12-16T11:50:07.083Z,7.34
2022-12-16T11:52:52.134Z,7.13
2022-12-16T11:59:15.562Z,6.95
2022-12-16T12:02:03.814Z,6.58
2022-12-16T12:04:52.699Z,6.44
2022-12-16T12:07:44.285Z,6.81
2022-12-16T12:10:31.865Z,6.43
2022-12-16T12:13:25.596Z,6.62
2022-12-16T12:16:19.858Z,7.11
2022-12-16T12:19:10.342Z,6.74
2022-12-16T12:22:05.750Z,6.59
2022-12-16T12:25:17.120Z,7.00
2022-12-16T12:28:09.762Z,6.28
2022-12-16T12:34:34.091Z,6.29
2022-12-16T12:37:42.057Z,5.92
2022-12-16T12:40:42.885Z,5.62
2022-12-16T12:43:42.443Z,4.94
2022-12-16T12:46:39.385Z,5.78
2022-12-16T12:49:35.214Z,6.05
2022-12-16T12:52:28.682Z,5.96
2022-12-16T12:55:23.251Z,5.55
2022-12-16T12:58:13.006Z,5.75
2022-12-16T13:01:05.343Z,6.14
2022-12-16T13:03:52.613Z,5.14
2022-12-16T13:06:38.733Z,5.88
2022-12-16T13:09:41.612Z,5.18
2022-12-16T13:12:26.988Z,5.89
2022-12-16T13:15:23.668Z,6.56
2022-12-16T13:18:18.165Z,5.82
2022-12-16T13:21:04.423Z,5.53
2022-12-16T13:23:51.649Z,6.28
2022-12-16T13:26:38.767Z,5.71
2022-12-16T13:29:24.407Z,6.07
2022-12-16T13:32:19.069Z,5.82
2022-12-16T13:35:04.114Z,5.84
2022-12-16T13:37:49.758Z,5.40
2022-12-16T13:40:39.467Z,6.27
2022-12-16T13:43:38.478Z,5.32
2022-12-16T13:46:24.168Z,5.59
2022-12-16T13:49:09.234Z,6.07
2022-12-16T13:51:57.416Z,5.79
2022-12-16T13:54:48.094Z,6.12
2022-12-16T13:57:38.281Z,5.95
2022-12-16T14:00:25.031Z,5.65
2022-12-16T14:03:11.236Z,5.09
2022-12-16T14:06:03.151Z,5.08
2022-12-16T14:08:52.797Z,5.40
2022-12-16T14:11:41.707Z,5.68
2022-12-16T14:14:27.166Z,5.38
2022-12-16T14:17:14.485Z,5.12
2022-12-16T14:20:05.585Z,5.70
2022-12-16T14:23:09.307Z,5.63
2022-12-16T14:25:54.829Z,5.65
2022-12-16T14:28:52.583Z,6.05
2022-12-16T14:31:52.752Z,5.90
2022-12-16T14:34:44.898Z,6.19
2022-12-16T14:37:38.817Z,6.06
2022-12-16T14:40:36.641Z,6.66
2022-12-16T14:43:22.505Z,6.39
2022-12-16T14:46:08.665Z,6.01
2022-12-16T14:48:56.620Z,5.68
2022-12-16T14:51:44.131Z,5.66
2022-12-16T14:54:46.737Z,5.60
2022-12-16T14:57:34.219Z,5.11
2022-12-16T15:00:20.744Z,5.33
2022-12-16T15:03:12.384Z,5.28
2022-12-16T15:05:59.205Z,4.78
2022-12-16T15:09:04.472Z,4.66
2022-12-16T15:11:49.738Z,4.96
2022-12-16T15:14:40.353Z,4.77
2022-12-16T15:17:30.117Z,5.15
2022-12-16T15:20:15.226Z,4.76
2022-12-16T15:23:10.656Z,4.68
2022-12-16T15:26:00.598Z,5.00
2022-12-16T15:29:04.267Z,4.95
2022-12-16T15:31:51.906Z,4.21
2022-12-16T15:34:48.427Z,4.77
2022-12-16T15:37:44.890Z,5.11
2022-12-16T15:40:46.916Z,5.36
2022-12-16T15:43:41.073Z,5.48
2022-12-16T15:46:34.784Z,5.70
2022-12-16T15:49:20.300Z,4.75
2022-12-16T15:52:06.739Z,4.61
2022-12-16T15:54:52.587Z,4.87
2022-12-16T15:57:48.509Z,4.15
2022-12-16T16:00:38.772Z,4.62
2022-12-16T16:03:26.627Z,4.71
2022-12-16T16:06:12.163Z,4.61
2022-12-16T16:08:57.381Z,4.35
2022-12-16T16:11:42.528Z,4.29
2022-12-16T16:14:27.688Z,4.55
2022-12-16T16:17:12.884Z,4.15
2022-12-16T16:20:03.194Z,4.48
2022-12-16T16:22:50.647Z,4.72
2022-12-16T16:25:35.763Z,4.32
2022-12-16T16:28:21.309Z,4.56
2022-12-16T16:31:06.540Z,4.15
2022-12-16T16:33:51.642Z,4.00
2022-12-16T16:36:38.028Z,4.09
2022-12-16T16:39:22.999Z,4.27
2022-12-16T16:42:08.118Z,3.86
2022-12-16T16:44:53.323Z,4.41
2022-12-16T16:47:38.755Z,4.13
2022-12-16T16:50:25.298Z,4.51
2022-12-16T16:53:12.036Z,4.71
2022-12-16T16:55:57.521Z,3.95
2022-12-16T16:58:45.396Z,3.78
2022-12-16T17:01:37.215Z,4.20
2022-12-16T17:04:25.886Z,3.72
2022-12-16T17:07:11.047Z,3.35
2022-12-16T17:09:56.313Z,4.05
2022-12-16T17:12:42.848Z,3.63
2022-12-16T17:15:43.895Z,3.42
2022-12-16T17:18:29.047Z,3.53
2022-12-16T17:21:14.169Z,3.52
2022-12-16T17:24:02.579Z,3.36
2022-12-16T17:26:48.433Z,3.26
2022-12-16T17:29:53.752Z,3.51
2022-12-16T17:32:44.122Z,3.51
2022-12-16T17:35:32.663Z,3.56
2022-12-16T17:38:17.946Z,3.70
2022-12-16T17:41:09.744Z,4.00
2022-12-16T17:43:57.163Z,3.90
2022-12-16T17:46:45.613Z,4.14
2022-12-16T17:49:30.995Z,3.65
2022-12-16T17:52:15.884Z,3.93
2022-12-16T17:55:02.668Z,4.26
2022-12-16T17:57:47.807Z,3.80
2022-12-16T18:00:33.607Z,4.49
2022-12-16T18:03:19.564Z,3.90
2022-12-16T18:06:06.766Z,4.26
2022-12-16T18:08:51.792Z,4.23
2022-12-16T18:11:38.852Z,4.08
2022-12-16T18:14:24.816Z,3.60
2022-12-16T18:17:10.108Z,3.84
2022-12-16T18:19:55.273Z,3.49
2022-12-16T18:22:40.594Z,4.00
2022-12-16T18:25:26.336Z,3.70
2022-12-16T18:28:11.485Z,3.91
2022-12-16T18:30:56.766Z,3.87
2022-12-16T18:33:42.047Z,3.83
2022-12-16T18:36:27.274Z,4.14
2022-12-16T18:39:12.692Z,4.02
2022-12-16T18:42:01.753Z,4.05
2022-12-16T18:44:47.530Z,4.21
2022-12-16T18:47:32.601Z,4.15
2022-12-16T18:50:20.101Z,3.79
2022-12-16T18:53:09.378Z,3.87
2022-12-16T18:55:54.894Z,3.79
2022-12-16T18:58:51.229Z,4.01
2022-12-16T19:01:37.861Z,3.33
2022-12-16T19:04:23.532Z,3.69
2022-12-16T19:07:09.052Z,3.12
2022-12-16T19:10:14.594Z,3.38
2022-12-16T19:13:06.007Z,3.28
2022-12-16T19:15:51.613Z,3.00
2022-12-16T19:18:37.438Z,3.02
2022-12-16T19:21:24.091Z,3.24
2022-12-16T19:24:15.993Z,3.64
2022-12-16T19:27:01.703Z,3.02
2022-12-16T19:29:46.909Z,3.60
2022-12-16T19:32:32.571Z,3.35
2022-12-16T19:35:17.931Z,3.31
2022-12-16T19:38:03.132Z,3.73
2022-12-16T19:40:58.770Z,3.47
2022-12-16T19:43:43.993Z,3.55
2022-12-16T19:46:29.234Z,3.85
2022-12-16T19:49:14.591Z,3.39
2022-12-16T19:52:00.044Z,2.77
2022-12-16T19:54:45.433Z,3.09
2022-12-16T19:57:30.607Z,3.33
2022-12-16T20:00:15.980Z,3.52
2022-12-16T20:03:01.264Z,3.51
2022-12-16T20:05:46.803Z,3.58
2022-12-16T20:08:33.159Z,3.10
2022-12-16T20:11:23.402Z,3.41
2022-12-16T20:14:10.987Z,3.47
2022-12-16T20:16:56.771Z,3.76
2022-12-16T20:19:42.097Z,3.87
2022-12-16T20:22:27.730Z,3.43
2022-12-16T20:25:12.922Z,3.40
2022-12-16T20:27:58.036Z,3.29
2022-12-16T20:30:43.848Z,3.44
2022-12-16T20:33:33.706Z,3.00
2022-12-16T20:36:20.486Z,3.03
2022-12-16T20:39:08.135Z,3.13
2022-12-16T20:44:59.429Z,3.33
2022-12-16T20:47:44.559Z,3.38
2022-12-16T20:50:43.476Z,3.25
2022-12-16T20:53:28.625Z,3.19
2022-12-16T20:56:14.058Z,3.26
2022-12-16T20:58:59.283Z,3.11
2022-12-16T21:02:01.289Z,3.10
2022-12-16T21:04:51.090Z,3.18
2022-12-16T21:07:36.890Z,3.29
2022-12-16T21:10:32.515Z,3.87
2022-12-16T21:13:24.473Z,3.81
2022-12-16T21:16:09.602Z,3.74
2022-12-16T21:18:57.239Z,3.29
2022-12-16T21:21:50.268Z,3.47
2022-12-16T21:24:35.475Z,3.32
2022-12-16T21:27:21.792Z,3.21
2022-12-16T21:30:07.009Z,3.34
2022-12-16T21:32:52.206Z,3.02
2022-12-16T21:35:38.921Z,2.79
2022-12-16T21:38:32.986Z,3.35
2022-12-16T21:41:18.225Z,3.40
2022-12-16T21:44:03.374Z,2.52
2022-12-16T21:46:48.741Z,2.63
2022-12-16T21:49:33.838Z,2.93
2022-12-16T21:52:18.980Z,3.18
2022-12-16T21:55:04.194Z,3.67
2022-12-16T21:57:49.496Z,3.82
2022-12-16T22:00:35.333Z,3.27
2022-12-16T22:03:20.409Z,3.17
2022-12-16T22:06:06.765Z,2.76
2022-12-16T22:08:52.032Z,2.72
2022-12-16T22:11:37.056Z,3.19
2022-12-16T22:14:22.177Z,2.76
2022-12-16T22:17:07.288Z,3.32
2022-12-16T22:19:56.221Z,3.02
2022-12-16T22:22:41.924Z,2.77
2022-12-16T22:25:30.104Z,2.53
2022-12-16T22:28:15.217Z,2.51
2022-12-16T22:31:00.579Z,2.23
2022-12-16T22:33:45.745Z,2.45
2022-12-16T22:36:32.507Z,2.55
2022-12-16T22:39:17.606Z,1.99
2022-12-16T22:42:02.650Z,1.95
2022-12-16T22:44:48.049Z,2.41
2022-12-16T22:47:33.370Z,2.68
2022-12-16T22:50:18.703Z,2.84
2022-12-16T22:53:04.390Z,2.53
2022-12-16T22:55:49.526Z,2.57
2022-12-16T22:58:41.111Z,2.54
2022-12-16T23:01:26.605Z,2.11
2022-12-16T23:04:12.375Z,2.30
2022-12-16T23:06:57.520Z,1.86
2022-12-16T23:09:42.792Z,1.76
2022-12-16T23:12:27.919Z,1.86
2022-12-16T23:15:13.968Z,2.08
2022-12-16T23:17:59.086Z,2.05
2022-12-16T23:20:46.495Z,2.60
2022-12-16T23:23:31.842Z,1.99
2022-12-16T23:26:17.959Z,1.98
2022-12-16T23:29:03.206Z,1.86
2022-12-16T23:31:48.326Z,1.99
2022-12-16T23:34:33.702Z,2.17
2022-12-16T23:37:18.737Z,2.07
2022-12-16T23:40:04.081Z,2.27
2022-12-16T23:42:49.174Z,2.22
2022-12-16T23:45:34.672Z,2.99
2022-12-16T23:48:24.548Z,2.19
2022-12-16T23:51:10.186Z,2.43
2022-12-16T23:53:56.527Z,2.15
2022-12-16T23:56:42.314Z,2.77
2022-12-16T23:59:27.703Z,2.27
